sensor_id;sensor_type;location;lat;lon;timestamp;P1;durP1;ratioP1;P2;durP2;ratioP2
7171;SDS011;3627;46.544;14.944;2023-08-01T00:00:13;8.38;;;3.88;;
7171;SDS011;3627;46.544;14.944;2023-08-01T00:02:39;5.53;;;4.57;;
7171;SDS011;3627;46.544;14.944;2023-08-01T00:05:08;5.68;;;3.90;;
7171;SDS011;3627;46.544;14.944;2023-08-01T00:07:35;4.30;;;3.60;;
7171;SDS011;3627;46.544;14.944;2023-08-01T00:10:01;5.20;;;3.72;;
7171;SDS011;3627;46.544;14.944;2023-08-01T00:12:27;5.32;;;3.88;;
7171;SDS011;3627;46.544;14.944;2023-08-01T00:14:55;7.65;;;4.32;;
7171;SDS011;3627;46.544;14.944;2023-08-01T00:17:21;6.15;;;4.22;;
7171;SDS011;3627;46.544;14.944;2023-08-01T00:19:48;6.10;;;4.68;;
7171;SDS011;3627;46.544;14.944;2023-08-01T00:22:14;5.63;;;4.07;;
7171;SDS011;3627;46.544;14.944;2023-08-01T00:24:40;8.77;;;5.18;;
7171;SDS011;3627;46.544;14.944;2023-08-01T00:27:07;8.43;;;5.68;;
7171;SDS011;3627;46.544;14.944;2023-08-01T00:29:35;7.03;;;5.35;;
7171;SDS011;3627;46.544;14.944;2023-08-01T00:32:03;6.97;;;5.43;;
7171;SDS011;3627;46.544;14.944;2023-08-01T00:34:29;7.05;;;4.57;;
7171;SDS011;3627;46.544;14.944;2023-08-01T00:36:56;6.38;;;4.70;;
7171;SDS011;3627;46.544;14.944;2023-08-01T00:39:22;5.70;;;4.72;;
7171;SDS011;3627;46.544;14.944;2023-08-01T00:41:49;7.65;;;4.90;;
7171;SDS011;3627;46.544;14.944;2023-08-01T00:44:15;8.27;;;4.55;;
7171;SDS011;3627;46.544;14.944;2023-08-01T00:46:41;7.20;;;4.45;;
7171;SDS011;3627;46.544;14.944;2023-08-01T00:49:09;5.68;;;5.00;;
7171;SDS011;3627;46.544;14.944;2023-08-01T00:51:36;5.93;;;4.47;;
7171;SDS011;3627;46.544;14.944;2023-08-01T00:54:02;6.78;;;4.28;;
7171;SDS011;3627;46.544;14.944;2023-08-01T00:56:29;5.47;;;4.05;;
7171;SDS011;3627;46.544;14.944;2023-08-01T00:58:55;6.30;;;4.80;;
7171;SDS011;3627;46.544;14.944;2023-08-01T01:01:22;5.55;;;4.20;;
7171;SDS011;3627;46.544;14.944;2023-08-01T01:03:48;6.22;;;4.45;;
7171;SDS011;3627;46.544;14.944;2023-08-01T01:06:18;6.72;;;4.38;;
7171;SDS011;3627;46.544;14.944;2023-08-01T01:08:47;6.60;;;4.82;;
7171;SDS011;3627;46.544;14.944;2023-08-01T01:11:13;8.30;;;5.57;;
7171;SDS011;3627;46.544;14.944;2023-08-01T01:13:39;11.18;;;4.95;;
7171;SDS011;3627;46.544;14.944;2023-08-01T01:16:06;6.30;;;4.88;;
7171;SDS011;3627;46.544;14.944;2023-08-01T01:18:32;7.13;;;4.72;;
7171;SDS011;3627;46.544;14.944;2023-08-01T01:21:00;6.50;;;4.40;;
7171;SDS011;3627;46.544;14.944;2023-08-01T01:23:26;5.53;;;4.18;;
7171;SDS011;3627;46.544;14.944;2023-08-01T01:25:53;6.78;;;4.32;;
7171;SDS011;3627;46.544;14.944;2023-08-01T01:28:20;7.47;;;4.03;;
7171;SDS011;3627;46.544;14.944;2023-08-01T01:30:47;4.50;;;3.90;;
7171;SDS011;3627;46.544;14.944;2023-08-01T01:33:14;6.82;;;4.22;;
7171;SDS011;3627;46.544;14.944;2023-08-01T01:35:41;5.45;;;4.28;;
7171;SDS011;3627;46.544;14.944;2023-08-01T01:38:08;6.32;;;3.83;;
7171;SDS011;3627;46.544;14.944;2023-08-01T01:40:35;5.25;;;4.13;;
7171;SDS011;3627;46.544;14.944;2023-08-01T01:43:01;6.13;;;3.95;;
7171;SDS011;3627;46.544;14.944;2023-08-01T01:45:28;5.97;;;4.13;;
7171;SDS011;3627;46.544;14.944;2023-08-01T01:47:54;5.32;;;3.83;;
7171;SDS011;3627;46.544;14.944;2023-08-01T01:50:21;5.20;;;4.55;;
7171;SDS011;3627;46.544;14.944;2023-08-01T01:52:47;5.60;;;4.53;;
7171;SDS011;3627;46.544;14.944;2023-08-01T01:55:15;6.78;;;3.53;;
7171;SDS011;3627;46.544;14.944;2023-08-01T01:57:41;5.70;;;4.10;;
7171;SDS011;3627;46.544;14.944;2023-08-01T02:00:08;5.70;;;3.92;;
7171;SDS011;3627;46.544;14.944;2023-08-01T02:02:35;4.88;;;4.05;;
7171;SDS011;3627;46.544;14.944;2023-08-01T02:05:02;4.18;;;3.67;;
7171;SDS011;3627;46.544;14.944;2023-08-01T02:07:29;4.75;;;3.90;;
7171;SDS011;3627;46.544;14.944;2023-08-01T02:09:55;4.88;;;4.32;;
7171;SDS011;3627;46.544;14.944;2023-08-01T02:12:23;5.75;;;3.90;;
7171;SDS011;3627;46.544;14.944;2023-08-01T02:14:49;5.30;;;4.30;;
7171;SDS011;3627;46.544;14.944;2023-08-01T02:17:15;6.97;;;4.57;;
7171;SDS011;3627;46.544;14.944;2023-08-01T02:19:42;5.68;;;4.57;;
7171;SDS011;3627;46.544;14.944;2023-08-01T02:22:08;5.78;;;4.18;;
7171;SDS011;3627;46.544;14.944;2023-08-01T02:24:34;6.28;;;5.05;;
7171;SDS011;3627;46.544;14.944;2023-08-01T02:27:01;5.40;;;3.97;;
7171;SDS011;3627;46.544;14.944;2023-08-01T02:29:28;8.68;;;4.50;;
7171;SDS011;3627;46.544;14.944;2023-08-01T02:31:55;5.82;;;4.25;;
7171;SDS011;3627;46.544;14.944;2023-08-01T02:34:21;5.32;;;4.03;;
7171;SDS011;3627;46.544;14.944;2023-08-01T02:36:48;5.10;;;4.53;;
7171;SDS011;3627;46.544;14.944;2023-08-01T02:39:14;6.70;;;4.22;;
7171;SDS011;3627;46.544;14.944;2023-08-01T02:41:40;6.28;;;4.20;;
7171;SDS011;3627;46.544;14.944;2023-08-01T02:44:07;5.72;;;3.78;;
7171;SDS011;3627;46.544;14.944;2023-08-01T02:46:35;6.43;;;4.70;;
7171;SDS011;3627;46.544;14.944;2023-08-01T02:49:01;5.70;;;4.32;;
7171;SDS011;3627;46.544;14.944;2023-08-01T02:51:28;4.70;;;4.30;;
7171;SDS011;3627;46.544;14.944;2023-08-01T02:53:54;5.82;;;3.92;;
7171;SDS011;3627;46.544;14.944;2023-08-01T02:56:20;5.90;;;3.70;;
7171;SDS011;3627;46.544;14.944;2023-08-01T02:58:47;6.50;;;4.10;;
7171;SDS011;3627;46.544;14.944;2023-08-01T03:01:13;5.88;;;4.50;;
7171;SDS011;3627;46.544;14.944;2023-08-01T03:03:41;5.47;;;4.05;;
7171;SDS011;3627;46.544;14.944;2023-08-01T03:06:07;4.88;;;4.05;;
7171;SDS011;3627;46.544;14.944;2023-08-01T03:08:33;6.32;;;4.55;;
7171;SDS011;3627;46.544;14.944;2023-08-01T03:11:00;5.47;;;4.22;;
7171;SDS011;3627;46.544;14.944;2023-08-01T03:13:26;7.38;;;4.25;;
7171;SDS011;3627;46.544;14.944;2023-08-01T03:15:52;4.68;;;4.22;;
7171;SDS011;3627;46.544;14.944;2023-08-01T03:18:19;4.93;;;4.15;;
7171;SDS011;3627;46.544;14.944;2023-08-01T03:20:47;6.03;;;4.35;;
7171;SDS011;3627;46.544;14.944;2023-08-01T03:23:13;7.10;;;4.50;;
7171;SDS011;3627;46.544;14.944;2023-08-01T03:25:39;5.60;;;4.22;;
7171;SDS011;3627;46.544;14.944;2023-08-01T03:28:06;5.03;;;4.05;;
7171;SDS011;3627;46.544;14.944;2023-08-01T03:30:32;5.63;;;4.60;;
7171;SDS011;3627;46.544;14.944;2023-08-01T03:32:59;7.90;;;4.60;;
7171;SDS011;3627;46.544;14.944;2023-08-01T03:35:25;5.80;;;4.18;;
7171;SDS011;3627;46.544;14.944;2023-08-01T03:37:53;6.45;;;4.20;;
7171;SDS011;3627;46.544;14.944;2023-08-01T03:40:19;5.22;;;4.30;;
7171;SDS011;3627;46.544;14.944;2023-08-01T03:42:46;5.15;;;3.88;;
7171;SDS011;3627;46.544;14.944;2023-08-01T03:45:12;7.10;;;4.55;;
7171;SDS011;3627;46.544;14.944;2023-08-01T03:47:39;5.47;;;4.25;;
7171;SDS011;3627;46.544;14.944;2023-08-01T03:50:05;10.15;;;5.13;;
7171;SDS011;3627;46.544;14.944;2023-08-01T03:52:32;5.15;;;4.35;;
7171;SDS011;3627;46.544;14.944;2023-08-01T03:54:59;5.85;;;4.35;;
7171;SDS011;3627;46.544;14.944;2023-08-01T03:57:26;5.03;;;3.67;;
7171;SDS011;3627;46.544;14.944;2023-08-01T03:59:52;4.95;;;4.25;;
7171;SDS011;3627;46.544;14.944;2023-08-01T04:02:19;4.57;;;3.67;;
7171;SDS011;3627;46.544;14.944;2023-08-01T04:04:45;6.70;;;3.97;;
7171;SDS011;3627;46.544;14.944;2023-08-01T04:07:11;7.85;;;3.95;;
7171;SDS011;3627;46.544;14.944;2023-08-01T04:09:38;6.13;;;3.60;;
7171;SDS011;3627;46.544;14.944;2023-08-01T04:12:06;5.38;;;4.10;;
7171;SDS011;3627;46.544;14.944;2023-08-01T04:14:32;5.65;;;3.72;;
7171;SDS011;3627;46.544;14.944;2023-08-01T04:16:58;6.57;;;4.03;;
7171;SDS011;3627;46.544;14.944;2023-08-01T04:19:25;4.63;;;3.80;;
7171;SDS011;3627;46.544;14.944;2023-08-01T04:21:51;4.80;;;4.40;;
7171;SDS011;3627;46.544;14.944;2023-08-01T04:24:17;4.95;;;3.97;;
7171;SDS011;3627;46.544;14.944;2023-08-01T04:26:44;6.72;;;3.80;;
7171;SDS011;3627;46.544;14.944;2023-08-01T04:29:12;5.25;;;4.35;;
7171;SDS011;3627;46.544;14.944;2023-08-01T04:31:40;5.15;;;3.70;;
7171;SDS011;3627;46.544;14.944;2023-08-01T04:34:06;3.50;;;3.20;;
7171;SDS011;3627;46.544;14.944;2023-08-01T04:36:33;4.05;;;3.20;;
7171;SDS011;3627;46.544;14.944;2023-08-01T04:38:59;4.32;;;3.47;;
7171;SDS011;3627;46.544;14.944;2023-08-01T04:41:25;3.97;;;3.53;;
7171;SDS011;3627;46.544;14.944;2023-08-01T04:43:53;5.50;;;3.15;;
7171;SDS011;3627;46.544;14.944;2023-08-01T04:46:20;5.72;;;3.67;;
7171;SDS011;3627;46.544;14.944;2023-08-01T04:48:47;3.95;;;3.38;;
7171;SDS011;3627;46.544;14.944;2023-08-01T04:51:13;3.75;;;3.35;;
7171;SDS011;3627;46.544;14.944;2023-08-01T04:53:39;5.90;;;3.25;;
7171;SDS011;3627;46.544;14.944;2023-08-01T04:56:06;5.57;;;3.30;;
7171;SDS011;3627;46.544;14.944;2023-08-01T04:58:32;3.60;;;3.10;;
7171;SDS011;3627;46.544;14.944;2023-08-01T05:00:58;4.65;;;3.15;;
7171;SDS011;3627;46.544;14.944;2023-08-01T05:03:26;5.00;;;2.97;;
7171;SDS011;3627;46.544;14.944;2023-08-01T05:05:53;5.35;;;3.30;;
7171;SDS011;3627;46.544;14.944;2023-08-01T05:08:19;7.65;;;3.88;;
7171;SDS011;3627;46.544;14.944;2023-08-01T05:10:45;5.65;;;3.33;;
7171;SDS011;3627;46.544;14.944;2023-08-01T05:13:12;4.95;;;3.70;;
7171;SDS011;3627;46.544;14.944;2023-08-01T05:15:38;5.07;;;3.55;;
7171;SDS011;3627;46.544;14.944;2023-08-01T05:18:04;5.05;;;3.72;;
7171;SDS011;3627;46.544;14.944;2023-08-01T05:20:32;5.00;;;3.40;;
7171;SDS011;3627;46.544;14.944;2023-08-01T05:22:59;6.63;;;4.10;;
7171;SDS011;3627;46.544;14.944;2023-08-01T05:25:25;6.72;;;4.10;;
7171;SDS011;3627;46.544;14.944;2023-08-01T05:27:52;4.78;;;3.95;;
7171;SDS011;3627;46.544;14.944;2023-08-01T05:30:18;6.65;;;4.03;;
7171;SDS011;3627;46.544;14.944;2023-08-01T05:32:44;9.80;;;4.45;;
7171;SDS011;3627;46.544;14.944;2023-08-01T05:35:12;4.70;;;3.67;;
7171;SDS011;3627;46.544;14.944;2023-08-01T05:37:39;6.07;;;3.42;;
7171;SDS011;3627;46.544;14.944;2023-08-01T05:40:06;5.13;;;3.67;;
7171;SDS011;3627;46.544;14.944;2023-08-01T05:42:33;7.53;;;3.53;;
7171;SDS011;3627;46.544;14.944;2023-08-01T05:44:59;6.70;;;3.78;;
7171;SDS011;3627;46.544;14.944;2023-08-01T05:47:26;7.90;;;4.10;;
7171;SDS011;3627;46.544;14.944;2023-08-01T05:49:52;9.88;;;4.70;;
7171;SDS011;3627;46.544;14.944;2023-08-01T05:52:18;5.80;;;4.20;;
7171;SDS011;3627;46.544;14.944;2023-08-01T05:54:46;8.80;;;4.78;;
7171;SDS011;3627;46.544;14.944;2023-08-01T05:57:12;7.25;;;5.00;;
7171;SDS011;3627;46.544;14.944;2023-08-01T05:59:39;8.25;;;5.20;;
7171;SDS011;3627;46.544;14.944;2023-08-01T06:02:05;8.77;;;5.55;;
7171;SDS011;3627;46.544;14.944;2023-08-01T06:04:32;12.13;;;5.95;;
7171;SDS011;3627;46.544;14.944;2023-08-01T06:06:58;9.93;;;5.50;;
7171;SDS011;3627;46.544;14.944;2023-08-01T06:09:24;12.75;;;5.78;;
7171;SDS011;3627;46.544;14.944;2023-08-01T06:11:52;9.20;;;4.82;;
7171;SDS011;3627;46.544;14.944;2023-08-01T06:14:19;7.93;;;4.93;;
7171;SDS011;3627;46.544;14.944;2023-08-01T06:16:45;7.10;;;4.25;;
7171;SDS011;3627;46.544;14.944;2023-08-01T06:19:11;4.40;;;2.95;;
7171;SDS011;3627;46.544;14.944;2023-08-01T06:21:38;3.83;;;3.20;;
7171;SDS011;3627;46.544;14.944;2023-08-01T06:24:04;5.10;;;3.30;;
7171;SDS011;3627;46.544;14.944;2023-08-01T06:26:31;5.85;;;3.15;;
7171;SDS011;3627;46.544;14.944;2023-08-01T06:28:58;4.40;;;3.33;;
7171;SDS011;3627;46.544;14.944;2023-08-01T06:31:25;4.78;;;3.10;;
7171;SDS011;3627;46.544;14.944;2023-08-01T06:33:51;3.40;;;2.80;;
7171;SDS011;3627;46.544;14.944;2023-08-01T06:36:17;3.00;;;2.70;;
7171;SDS011;3627;46.544;14.944;2023-08-01T06:38:44;3.05;;;2.65;;
7171;SDS011;3627;46.544;14.944;2023-08-01T06:41:11;5.40;;;2.92;;
7171;SDS011;3627;46.544;14.944;2023-08-01T06:43:37;6.30;;;3.53;;
7171;SDS011;3627;46.544;14.944;2023-08-01T06:46:05;3.85;;;2.92;;
7171;SDS011;3627;46.544;14.944;2023-08-01T06:48:32;6.78;;;3.83;;
7171;SDS011;3627;46.544;14.944;2023-08-01T06:50:59;4.93;;;2.88;;
7171;SDS011;3627;46.544;14.944;2023-08-01T06:53:26;4.40;;;2.97;;
7171;SDS011;3627;46.544;14.944;2023-08-01T06:55:52;3.92;;;2.95;;
7171;SDS011;3627;46.544;14.944;2023-08-01T06:58:18;4.38;;;3.53;;
7171;SDS011;3627;46.544;14.944;2023-08-01T07:00:45;6.13;;;3.47;;
7171;SDS011;3627;46.544;14.944;2023-08-01T07:03:12;6.07;;;3.92;;
7171;SDS011;3627;46.544;14.944;2023-08-01T07:05:39;5.47;;;3.78;;
7171;SDS011;3627;46.544;14.944;2023-08-01T07:08:05;7.97;;;4.90;;
7171;SDS011;3627;46.544;14.944;2023-08-01T07:10:33;9.55;;;4.90;;
7171;SDS011;3627;46.544;14.944;2023-08-01T07:13:00;8.30;;;4.70;;
7171;SDS011;3627;46.544;14.944;2023-08-01T07:15:28;3.95;;;3.55;;
7171;SDS011;3627;46.544;14.944;2023-08-01T07:17:55;4.78;;;3.25;;
7171;SDS011;3627;46.544;14.944;2023-08-01T07:20:23;3.35;;;2.55;;
7171;SDS011;3627;46.544;14.944;2023-08-01T07:22:49;5.38;;;3.00;;
7171;SDS011;3627;46.544;14.944;2023-08-01T07:25:16;5.25;;;3.08;;
7171;SDS011;3627;46.544;14.944;2023-08-01T07:27:44;4.22;;;3.17;;
7171;SDS011;3627;46.544;14.944;2023-08-01T07:30:10;5.57;;;3.28;;
7171;SDS011;3627;46.544;14.944;2023-08-01T07:32:37;4.68;;;3.00;;
7171;SDS011;3627;46.544;14.944;2023-08-01T07:35:04;7.35;;;3.10;;
7171;SDS011;3627;46.544;14.944;2023-08-01T07:37:32;3.90;;;2.85;;
7171;SDS011;3627;46.544;14.944;2023-08-01T07:39:59;3.92;;;2.80;;
7171;SDS011;3627;46.544;14.944;2023-08-01T07:42:25;4.25;;;3.13;;
7171;SDS011;3627;46.544;14.944;2023-08-01T07:44:52;5.00;;;2.80;;
7171;SDS011;3627;46.544;14.944;2023-08-01T07:47:19;3.55;;;2.65;;
7171;SDS011;3627;46.544;14.944;2023-08-01T07:49:45;5.10;;;2.80;;
7171;SDS011;3627;46.544;14.944;2023-08-01T07:52:12;4.18;;;3.00;;
7171;SDS011;3627;46.544;14.944;2023-08-01T07:54:39;3.83;;;2.63;;
7171;SDS011;3627;46.544;14.944;2023-08-01T07:57:06;4.28;;;2.83;;
7171;SDS011;3627;46.544;14.944;2023-08-01T07:59:32;4.45;;;2.80;;
7171;SDS011;3627;46.544;14.944;2023-08-01T08:01:58;3.88;;;2.90;;
7171;SDS011;3627;46.544;14.944;2023-08-01T08:04:25;3.20;;;2.70;;
7171;SDS011;3627;46.544;14.944;2023-08-01T08:06:51;3.08;;;2.67;;
7171;SDS011;3627;46.544;14.944;2023-08-01T08:09:20;4.50;;;2.67;;
7171;SDS011;3627;46.544;14.944;2023-08-01T08:11:49;3.47;;;2.70;;
7171;SDS011;3627;46.544;14.944;2023-08-01T08:14:16;3.45;;;2.50;;
7171;SDS011;3627;46.544;14.944;2023-08-01T08:16:42;3.92;;;2.95;;
7171;SDS011;3627;46.544;14.944;2023-08-01T08:19:08;4.13;;;2.92;;
7171;SDS011;3627;46.544;14.944;2023-08-01T08:21:35;4.18;;;2.90;;
7171;SDS011;3627;46.544;14.944;2023-08-01T08:24:01;4.32;;;3.17;;
7171;SDS011;3627;46.544;14.944;2023-08-01T08:26:27;3.45;;;2.97;;
7171;SDS011;3627;46.544;14.944;2023-08-01T08:28:55;4.38;;;2.67;;
7171;SDS011;3627;46.544;14.944;2023-08-01T08:31:22;3.00;;;2.70;;
7171;SDS011;3627;46.544;14.944;2023-08-01T08:33:48;4.72;;;3.05;;
7171;SDS011;3627;46.544;14.944;2023-08-01T08:36:15;4.68;;;3.33;;
7171;SDS011;3627;46.544;14.944;2023-08-01T08:38:41;3.20;;;2.88;;
7171;SDS011;3627;46.544;14.944;2023-08-01T08:41:08;5.68;;;2.88;;
7171;SDS011;3627;46.544;14.944;2023-08-01T08:43:35;3.50;;;2.70;;
7171;SDS011;3627;46.544;14.944;2023-08-01T08:46:03;3.97;;;2.97;;
7171;SDS011;3627;46.544;14.944;2023-08-01T08:48:30;6.72;;;3.28;;
7171;SDS011;3627;46.544;14.944;2023-08-01T08:50:57;4.30;;;3.50;;
7171;SDS011;3627;46.544;14.944;2023-08-01T08:53:23;4.57;;;3.05;;
7171;SDS011;3627;46.544;14.944;2023-08-01T08:55:50;3.28;;;2.95;;
7171;SDS011;3627;46.544;14.944;2023-08-01T08:58:16;3.80;;;3.15;;
7171;SDS011;3627;46.544;14.944;2023-08-01T09:00:43;4.68;;;3.13;;
7171;SDS011;3627;46.544;14.944;2023-08-01T09:03:11;5.22;;;3.05;;
7171;SDS011;3627;46.544;14.944;2023-08-01T09:05:40;4.45;;;3.22;;
7171;SDS011;3627;46.544;14.944;2023-08-01T09:08:13;5.68;;;3.55;;
7171;SDS011;3627;46.544;14.944;2023-08-01T09:10:40;4.32;;;3.47;;
7171;SDS011;3627;46.544;14.944;2023-08-01T09:13:07;5.22;;;3.22;;
7171;SDS011;3627;46.544;14.944;2023-08-01T09:15:33;4.68;;;2.83;;
7171;SDS011;3627;46.544;14.944;2023-08-01T09:18:00;5.25;;;2.88;;
7171;SDS011;3627;46.544;14.944;2023-08-01T09:20:28;5.15;;;2.90;;
7171;SDS011;3627;46.544;14.944;2023-08-01T09:22:54;5.38;;;3.20;;
7171;SDS011;3627;46.544;14.944;2023-08-01T09:25:30;3.30;;;3.00;;
7171;SDS011;3627;46.544;14.944;2023-08-01T09:27:56;3.25;;;2.95;;
7171;SDS011;3627;46.544;14.944;2023-08-01T09:30:22;3.97;;;2.97;;
7171;SDS011;3627;46.544;14.944;2023-08-01T09:32:52;3.40;;;3.10;;
7171;SDS011;3627;46.544;14.944;2023-08-01T09:35:18;3.47;;;2.92;;
7171;SDS011;3627;46.544;14.944;2023-08-01T09:37:46;5.15;;;3.22;;
7171;SDS011;3627;46.544;14.944;2023-08-01T09:40:13;4.25;;;3.22;;
7171;SDS011;3627;46.544;14.944;2023-08-01T09:42:39;4.25;;;3.53;;
7171;SDS011;3627;46.544;14.944;2023-08-01T09:45:07;5.32;;;3.33;;
7171;SDS011;3627;46.544;14.944;2023-08-01T09:47:37;6.05;;;3.47;;
7171;SDS011;3627;46.544;14.944;2023-08-01T09:50:04;4.95;;;3.67;;
7171;SDS011;3627;46.544;14.944;2023-08-01T09:52:30;4.60;;;3.60;;
7171;SDS011;3627;46.544;14.944;2023-08-01T09:54:58;3.67;;;3.20;;
7171;SDS011;3627;46.544;14.944;2023-08-01T09:57:25;4.45;;;3.22;;
7171;SDS011;3627;46.544;14.944;2023-08-01T09:59:54;4.00;;;3.13;;
7171;SDS011;3627;46.544;14.944;2023-08-01T10:02:22;3.97;;;3.08;;
7171;SDS011;3627;46.544;14.944;2023-08-01T10:04:49;5.90;;;3.55;;
7171;SDS011;3627;46.544;14.944;2023-08-01T10:07:19;5.50;;;3.50;;
7171;SDS011;3627;46.544;14.944;2023-08-01T10:09:46;4.97;;;3.63;;
7171;SDS011;3627;46.544;14.944;2023-08-01T10:12:14;6.13;;;3.65;;
7171;SDS011;3627;46.544;14.944;2023-08-01T10:14:43;5.55;;;3.65;;
7171;SDS011;3627;46.544;14.944;2023-08-01T10:17:09;5.43;;;3.65;;
7171;SDS011;3627;46.544;14.944;2023-08-01T10:19:36;4.70;;;3.90;;
7171;SDS011;3627;46.544;14.944;2023-08-01T10:22:03;5.18;;;4.20;;
7171;SDS011;3627;46.544;14.944;2023-08-01T10:24:30;5.30;;;3.85;;
7171;SDS011;3627;46.544;14.944;2023-08-01T10:26:57;3.47;;;3.08;;
7171;SDS011;3627;46.544;14.944;2023-08-01T10:29:35;6.13;;;4.40;;
7171;SDS011;3627;46.544;14.944;2023-08-01T10:32:02;4.60;;;3.60;;
7171;SDS011;3627;46.544;14.944;2023-08-01T10:34:28;8.27;;;5.80;;
7171;SDS011;3627;46.544;14.944;2023-08-01T10:36:55;18.13;;;10.63;;
7171;SDS011;3627;46.544;14.944;2023-08-01T10:39:21;8.07;;;5.07;;
7171;SDS011;3627;46.544;14.944;2023-08-01T10:41:56;13.38;;;6.80;;
7171;SDS011;3627;46.544;14.944;2023-08-01T10:44:22;6.70;;;4.47;;
7171;SDS011;3627;46.544;14.944;2023-08-01T10:46:51;5.47;;;3.80;;
7171;SDS011;3627;46.544;14.944;2023-08-01T10:49:17;7.10;;;4.43;;
7171;SDS011;3627;46.544;14.944;2023-08-01T10:51:44;6.15;;;4.38;;
7171;SDS011;3627;46.544;14.944;2023-08-01T10:54:20;8.75;;;4.60;;
7171;SDS011;3627;46.544;14.944;2023-08-01T10:56:47;7.10;;;4.63;;
7171;SDS011;3627;46.544;14.944;2023-08-01T10:59:14;5.65;;;3.90;;
7171;SDS011;3627;46.544;14.944;2023-08-01T11:01:44;6.53;;;3.85;;
7171;SDS011;3627;46.544;14.944;2023-08-01T11:04:16;5.18;;;3.75;;
7171;SDS011;3627;46.544;14.944;2023-08-01T11:06:43;5.80;;;3.40;;
7171;SDS011;3627;46.544;14.944;2023-08-01T11:09:14;5.80;;;4.00;;
7171;SDS011;3627;46.544;14.944;2023-08-01T11:11:41;5.45;;;3.33;;
7171;SDS011;3627;46.544;14.944;2023-08-01T11:14:07;4.78;;;3.67;;
7171;SDS011;3627;46.544;14.944;2023-08-01T11:16:33;4.47;;;4.07;;
7171;SDS011;3627;46.544;14.944;2023-08-01T11:19:00;6.75;;;3.63;;
7171;SDS011;3627;46.544;14.944;2023-08-01T11:21:28;3.92;;;3.53;;
7171;SDS011;3627;46.544;14.944;2023-08-01T11:23:56;4.47;;;3.47;;
7171;SDS011;3627;46.544;14.944;2023-08-01T11:26:22;5.22;;;3.90;;
7171;SDS011;3627;46.544;14.944;2023-08-01T11:28:49;4.50;;;4.10;;
7171;SDS011;3627;46.544;14.944;2023-08-01T11:31:15;4.28;;;3.30;;
7171;SDS011;3627;46.544;14.944;2023-08-01T11:33:42;4.80;;;3.50;;
7171;SDS011;3627;46.544;14.944;2023-08-01T11:36:08;3.83;;;3.50;;
7171;SDS011;3627;46.544;14.944;2023-08-01T11:38:36;5.28;;;3.92;;
7171;SDS011;3627;46.544;14.944;2023-08-01T11:41:03;3.67;;;3.00;;
7171;SDS011;3627;46.544;14.944;2023-08-01T11:43:37;3.83;;;3.45;;
7171;SDS011;3627;46.544;14.944;2023-08-01T11:46:03;4.70;;;3.75;;
7171;SDS011;3627;46.544;14.944;2023-08-01T11:48:30;4.28;;;3.33;;
7171;SDS011;3627;46.544;14.944;2023-08-01T11:50:56;3.25;;;2.95;;
7171;SDS011;3627;46.544;14.944;2023-08-01T11:53:23;4.38;;;3.47;;
7171;SDS011;3627;46.544;14.944;2023-08-01T11:55:51;5.03;;;3.42;;
7171;SDS011;3627;46.544;14.944;2023-08-01T11:58:27;3.60;;;2.92;;
7171;SDS011;3627;46.544;14.944;2023-08-01T12:01:00;4.00;;;3.60;;
7171;SDS011;3627;46.544;14.944;2023-08-01T12:03:27;4.57;;;3.28;;
7171;SDS011;3627;46.544;14.944;2023-08-01T12:06:01;3.75;;;3.35;;
7171;SDS011;3627;46.544;14.944;2023-08-01T12:08:30;4.53;;;3.22;;
7171;SDS011;3627;46.544;14.944;2023-08-01T12:10:59;4.78;;;3.63;;
7171;SDS011;3627;46.544;14.944;2023-08-01T12:13:26;5.35;;;3.45;;
7171;SDS011;3627;46.544;14.944;2023-08-01T12:15:53;5.50;;;3.38;;
7171;SDS011;3627;46.544;14.944;2023-08-01T12:18:21;4.95;;;4.15;;
7171;SDS011;3627;46.544;14.944;2023-08-01T12:20:48;4.60;;;3.50;;
7171;SDS011;3627;46.544;14.944;2023-08-01T12:23:15;5.63;;;3.25;;
7171;SDS011;3627;46.544;14.944;2023-08-01T12:25:41;4.30;;;3.13;;
7171;SDS011;3627;46.544;14.944;2023-08-01T12:28:09;3.60;;;3.30;;
7171;SDS011;3627;46.544;14.944;2023-08-01T12:30:35;4.65;;;3.33;;
7171;SDS011;3627;46.544;14.944;2023-08-01T12:33:02;4.97;;;3.70;;
7171;SDS011;3627;46.544;14.944;2023-08-01T12:35:28;4.60;;;4.07;;
7171;SDS011;3627;46.544;14.944;2023-08-01T12:37:55;3.90;;;3.45;;
7171;SDS011;3627;46.544;14.944;2023-08-01T12:40:21;3.47;;;3.15;;
7171;SDS011;3627;46.544;14.944;2023-08-01T12:42:48;3.58;;;3.20;;
7171;SDS011;3627;46.544;14.944;2023-08-01T12:45:16;3.10;;;2.85;;
7171;SDS011;3627;46.544;14.944;2023-08-01T12:47:42;4.90;;;3.25;;
7171;SDS011;3627;46.544;14.944;2023-08-01T12:50:09;4.40;;;3.08;;
7171;SDS011;3627;46.544;14.944;2023-08-01T12:52:36;3.45;;;3.10;;
7171;SDS011;3627;46.544;14.944;2023-08-01T12:55:02;3.47;;;3.08;;
7171;SDS011;3627;46.544;14.944;2023-08-01T12:57:28;4.35;;;3.60;;
7171;SDS011;3627;46.544;14.944;2023-08-01T12:59:55;3.80;;;3.25;;
7171;SDS011;3627;46.544;14.944;2023-08-01T13:02:23;3.55;;;3.20;;
7171;SDS011;3627;46.544;14.944;2023-08-01T13:04:49;4.72;;;4.22;;
7171;SDS011;3627;46.544;14.944;2023-08-01T13:07:15;6.22;;;4.18;;
7171;SDS011;3627;46.544;14.944;2023-08-01T13:09:42;6.35;;;4.35;;
7171;SDS011;3627;46.544;14.944;2023-08-01T13:12:08;5.35;;;3.92;;
7171;SDS011;3627;46.544;14.944;2023-08-01T13:14:34;4.55;;;3.50;;
7171;SDS011;3627;46.544;14.944;2023-08-01T13:17:01;4.03;;;3.28;;
7171;SDS011;3627;46.544;14.944;2023-08-01T13:19:29;5.18;;;3.50;;
7171;SDS011;3627;46.544;14.944;2023-08-01T13:21:55;4.80;;;3.83;;
7171;SDS011;3627;46.544;14.944;2023-08-01T13:24:22;4.65;;;3.50;;
7171;SDS011;3627;46.544;14.944;2023-08-01T13:26:48;5.30;;;3.20;;
7171;SDS011;3627;46.544;14.944;2023-08-01T13:29:14;4.22;;;3.47;;
7171;SDS011;3627;46.544;14.944;2023-08-01T13:31:41;5.18;;;3.53;;
7171;SDS011;3627;46.544;14.944;2023-08-01T13:34:08;3.75;;;3.40;;
7171;SDS011;3627;46.544;14.944;2023-08-01T13:36:35;6.03;;;4.05;;
7171;SDS011;3627;46.544;14.944;2023-08-01T13:39:02;4.95;;;3.70;;
7171;SDS011;3627;46.544;14.944;2023-08-01T13:41:28;5.43;;;3.95;;
7171;SDS011;3627;46.544;14.944;2023-08-01T13:43:54;5.72;;;4.35;;
7171;SDS011;3627;46.544;14.944;2023-08-01T13:46:21;6.57;;;4.55;;
7171;SDS011;3627;46.544;14.944;2023-08-01T13:48:47;7.13;;;5.63;;
7171;SDS011;3627;46.544;14.944;2023-08-01T13:51:13;3.72;;;3.38;;
7171;SDS011;3627;46.544;14.944;2023-08-01T13:53:41;6.78;;;4.18;;
7171;SDS011;3627;46.544;14.944;2023-08-01T13:56:07;5.72;;;4.43;;
7171;SDS011;3627;46.544;14.944;2023-08-01T13:58:34;6.00;;;4.28;;
7171;SDS011;3627;46.544;14.944;2023-08-01T14:01:03;5.50;;;3.28;;
7171;SDS011;3627;46.544;14.944;2023-08-01T14:03:29;5.60;;;3.42;;
7171;SDS011;3627;46.544;14.944;2023-08-01T14:05:56;4.43;;;3.20;;
7171;SDS011;3627;46.544;14.944;2023-08-01T14:08:22;4.28;;;3.10;;
7171;SDS011;3627;46.544;14.944;2023-08-01T14:10:50;5.95;;;3.60;;
7171;SDS011;3627;46.544;14.944;2023-08-01T14:13:16;5.53;;;3.83;;
7171;SDS011;3627;46.544;14.944;2023-08-01T14:15:43;4.03;;;3.55;;
7171;SDS011;3627;46.544;14.944;2023-08-01T14:18:09;3.88;;;3.13;;
7171;SDS011;3627;46.544;14.944;2023-08-01T14:20:35;3.97;;;3.42;;
7171;SDS011;3627;46.544;14.944;2023-08-01T14:23:02;4.18;;;3.22;;
7171;SDS011;3627;46.544;14.944;2023-08-01T14:25:28;4.85;;;3.72;;
7171;SDS011;3627;46.544;14.944;2023-08-01T14:27:56;5.43;;;4.20;;
7171;SDS011;3627;46.544;14.944;2023-08-01T14:30:22;4.43;;;4.03;;
7171;SDS011;3627;46.544;14.944;2023-08-01T14:32:48;3.65;;;3.35;;
7171;SDS011;3627;46.544;14.944;2023-08-01T14:35:15;4.00;;;3.40;;
7171;SDS011;3627;46.544;14.944;2023-08-01T14:37:41;4.30;;;3.85;;
7171;SDS011;3627;46.544;14.944;2023-08-01T14:40:13;5.10;;;3.15;;
7171;SDS011;3627;46.544;14.944;2023-08-01T14:42:39;6.53;;;3.00;;
7171;SDS011;3627;46.544;14.944;2023-08-01T14:45:07;4.13;;;2.60;;
7171;SDS011;3627;46.544;14.944;2023-08-01T14:47:34;3.10;;;2.00;;
7171;SDS011;3627;46.544;14.944;2023-08-01T14:50:02;3.47;;;2.15;;
7171;SDS011;3627;46.544;14.944;2023-08-01T14:52:29;2.40;;;1.70;;
7171;SDS011;3627;46.544;14.944;2023-08-01T14:54:56;2.47;;;1.85;;
7171;SDS011;3627;46.544;14.944;2023-08-01T14:57:22;1.98;;;1.75;;